Time;durP1;ratioP1;P1;durP2;ratioP2;P2;SDS_P1;SDS_P2;PMS_P1;PMS_P2;Temp;Humidity;BMP_temperature;BMP_pressure;BME280_temperature;BME280_humidity;BME280_pressure;Samples;Min_cycle;Max_cycle;Signal;HPM_P1;HPM_P2
2021/06/10 00:00:40;;;;;;;;;;;8.80;99.90;;;;;;5113534;28;19908;-70
2021/06/10 00:03:07;;;;;;;;;;;8.90;99.90;;;;;;5113345;28;20393;-71
2021/06/10 00:05:36;;;;;;;;;;;8.90;99.90;;;;;;5113103;28;20294;-70
2021/06/10 00:08:02;;;;;;;;;;;8.90;99.90;;;;;;5113191;28;19951;-68
2021/06/10 00:10:34;;;;;;;;;;;8.90;99.90;;;;;;5113270;28;20007;-68
2021/06/10 00:13:01;;;;;;;;;;;8.90;99.90;;;;;;5113056;28;19952;-68
2021/06/10 00:15:29;;;;;;;;;;;8.90;99.90;;;;;;5113260;28;19912;-70
2021/06/10 00:17:56;;;;;;;;;;;8.90;99.90;;;;;;5113195;28;19908;-69
2021/06/10 00:20:24;;;;;;;;;;;8.80;99.90;;;;;;5113019;28;19988;-70
2021/06/10 00:22:51;;;;;;;;;;;8.80;99.90;;;;;;5117347;28;20207;-71
2021/06/10 00:25:19;;;;;;;;;;;8.70;99.90;;;;;;5098721;28;19912;-71
2021/06/10 00:27:46;;;;;;;;;;;8.70;99.90;;;;;;5115007;28;19909;-70
2021/06/10 00:30:17;;;;;;;;;;;8.70;99.90;;;;;;5113849;28;19915;-72
2021/06/10 00:32:45;;;;;;;;;;;8.70;99.90;;;;;;5113630;28;20378;-68
2021/06/10 00:35:12;;;;;;;;;;;8.70;99.90;;;;;;5113583;28;19908;-70
2021/06/10 00:37:40;;;;;;;;;;;8.80;99.90;;;;;;5113165;28;19908;-71
2021/06/10 00:40:08;;;;;;;;;;;8.80;99.90;;;;;;5113277;28;20305;-71
2021/06/10 00:42:35;;;;;;;;;;;8.90;99.90;;;;;;5112698;28;19919;-70
2021/06/10 00:45:03;;;;;;;;;;;8.90;99.90;;;;;;5112776;28;19911;-69
2021/06/10 00:47:30;;;;;;;;;;;9.00;99.90;;;;;;5116864;28;19912;-69
2021/06/10 00:49:56;;;;;;;;;;;8.90;99.90;;;;;;5116501;28;20495;-69
2021/06/10 00:52:23;;;;;;;;;;;9.00;99.90;;;;;;5116729;28;19908;-70
2021/06/10 00:54:50;;;;;;;;;;;8.90;99.90;;;;;;5116387;28;20319;-71
2021/06/10 00:57:16;;;;;;;;;;;8.90;99.90;;;;;;5116732;28;20285;-70
2021/06/10 00:59:43;;;;;;;;;;;9.00;99.90;;;;;;5116506;28;19908;-71
2021/06/10 01:02:10;;;;;;;;;;;9.00;99.90;;;;;;5116375;28;20007;-71
2021/06/10 01:04:36;;;;;;;;;;;9.00;99.90;;;;;;5098048;28;19908;-71
2021/06/10 01:07:09;;;;;;;;;;;8.90;99.90;;;;;;5116288;28;19912;-71
2021/06/10 01:09:36;;;;;;;;;;;8.90;99.90;;;;;;5116209;28;19915;-69
2021/06/10 01:12:10;;;;;;;;;;;9.00;99.90;;;;;;5116310;28;19907;-70
2021/06/10 01:14:36;;;;;;;;;;;9.00;99.90;;;;;;5116250;28;20374;-69
2021/06/10 01:17:04;;;;;;;;;;;8.90;99.90;;;;;;5116149;28;19912;-68
2021/06/10 01:19:40;;;;;;;;;;;8.90;99.90;;;;;;5115947;28;19961;-70
2021/06/10 01:22:27;;;;;;;;;;;8.90;99.90;;;;;;5116031;28;20304;-69
2021/06/10 01:25:06;;;;;;;;;;;8.90;99.90;;;;;;5115287;28;19969;-68
2021/06/10 01:27:34;;;;;;;;;;;8.90;99.90;;;;;;5115998;28;20235;-70
2021/06/10 01:30:11;;;;;;;;;;;8.90;99.90;;;;;;5115961;28;20249;-70
2021/06/10 01:32:40;;;;;;;;;;;8.90;99.90;;;;;;5097858;28;19991;-69
2021/06/10 01:35:07;;;;;;;;;;;8.80;99.90;;;;;;5115435;28;19912;-71
2021/06/10 01:37:36;;;;;;;;;;;8.80;99.90;;;;;;5115801;28;19943;-70
2021/06/10 01:40:04;;;;;;;;;;;8.90;99.90;;;;;;5115772;28;19930;-70
2021/06/10 01:42:30;;;;;;;;;;;8.90;99.90;;;;;;5115557;28;19995;-68
2021/06/10 01:44:59;;;;;;;;;;;9.00;99.90;;;;;;5115408;28;19972;-70
2021/06/10 01:47:26;;;;;;;;;;;9.00;99.90;;;;;;5115669;28;19955;-70
2021/06/10 01:49:53;;;;;;;;;;;9.10;99.90;;;;;;5115367;28;19953;-69
2021/06/10 01:52:21;;;;;;;;;;;9.10;99.90;;;;;;5115644;28;19987;-70
2021/06/10 01:54:48;;;;;;;;;;;9.10;99.90;;;;;;5115169;28;20374;-69
2021/06/10 01:57:15;;;;;;;;;;;9.00;99.90;;;;;;5115082;28;19915;-69
2021/06/10 01:59:42;;;;;;;;;;;9.10;99.90;;;;;;5115402;28;20354;-70
2021/06/10 02:02:09;;;;;;;;;;;9.10;99.90;;;;;;5081605;28;20007;-67
2021/06/10 02:04:36;;;;;;;;;;;9.10;99.90;;;;;;5099984;28;19907;-69
2021/06/10 02:07:04;;;;;;;;;;;9.10;99.90;;;;;;5115123;28;19918;-69
2021/06/10 02:09:30;;;;;;;;;;;9.10;99.90;;;;;;5115187;28;19907;-70
2021/06/10 02:11:57;;;;;;;;;;;9.20;99.90;;;;;;5114954;28;20384;-68
2021/06/10 02:14:24;;;;;;;;;;;9.10;99.90;;;;;;5115344;28;19911;-69
2021/06/10 02:16:52;;;;;;;;;;;9.20;99.90;;;;;;5114653;28;19908;-68
2021/06/10 02:19:18;;;;;;;;;;;9.20;99.90;;;;;;5114661;28;19908;-68
2021/06/10 02:21:45;;;;;;;;;;;9.20;99.90;;;;;;5115020;28;19907;-69
2021/06/10 02:24:12;;;;;;;;;;;9.20;99.90;;;;;;5114862;28;19916;-67
2021/06/10 02:26:39;;;;;;;;;;;9.30;99.90;;;;;;5114832;28;19908;-68
2021/06/10 02:29:06;;;;;;;;;;;9.30;99.90;;;;;;5115688;28;19908;-69
2021/06/10 02:31:33;;;;;;;;;;;9.30;99.90;;;;;;5117315;28;20007;-69
2021/06/10 02:34:01;;;;;;;;;;;9.30;99.90;;;;;;5115892;28;19915;-71
2021/06/10 02:36:28;;;;;;;;;;;9.40;99.90;;;;;;5114625;28;20351;-70
2021/06/10 02:38:56;;;;;;;;;;;9.40;99.90;;;;;;5096173;28;19915;-71
2021/06/10 02:41:25;;;;;;;;;;;9.50;99.90;;;;;;5096059;28;20002;-69
2021/06/10 02:43:53;;;;;;;;;;;9.50;99.90;;;;;;5114208;28;20018;-70
2021/06/10 02:46:19;;;;;;;;;;;9.40;99.90;;;;;;5114457;28;19915;-68
2021/06/10 02:48:48;;;;;;;;;;;9.40;99.90;;;;;;5114115;28;19907;-70
2021/06/10 02:51:15;;;;;;;;;;;9.50;99.90;;;;;;5114207;28;19908;-70
2021/06/10 02:53:44;;;;;;;;;;;9.50;99.90;;;;;;5114386;28;20024;-71
2021/06/10 02:56:11;;;;;;;;;;;9.50;99.90;;;;;;5114368;28;19915;-71
2021/06/10 02:58:38;;;;;;;;;;;9.50;99.90;;;;;;5114226;28;19915;-70
2021/06/10 03:01:06;;;;;;;;;;;9.50;99.90;;;;;;5114056;28;19908;-70
2021/06/10 03:03:33;;;;;;;;;;;9.50;99.90;;;;;;5114131;28;20020;-70
2021/06/10 03:06:00;;;;;;;;;;;9.50;99.90;;;;;;5114124;28;20297;-69
2021/06/10 03:08:27;;;;;;;;;;;9.60;99.90;;;;;;5113477;28;20382;-69
2021/06/10 03:10:56;;;;;;;;;;;9.60;99.90;;;;;;5113694;28;19908;-69
2021/06/10 03:13:24;;;;;;;;;;;9.60;99.90;;;;;;5113957;28;19919;-68
2021/06/10 03:15:52;;;;;;;;;;;9.70;99.90;;;;;;5095704;28;20013;-70
2021/06/10 03:18:19;;;;;;;;;;;9.80;99.90;;;;;;5113839;28;19908;-70
2021/06/10 03:20:46;;;;;;;;;;;9.80;99.90;;;;;;5113541;28;20345;-68
2021/06/10 03:23:13;;;;;;;;;;;9.80;99.90;;;;;;5113714;28;19923;-68
2021/06/10 03:25:40;;;;;;;;;;;9.70;99.90;;;;;;5113506;28;19962;-70
2021/06/10 03:28:07;;;;;;;;;;;9.70;99.90;;;;;;5113719;28;19915;-69
2021/06/10 03:30:35;;;;;;;;;;;9.70;99.90;;;;;;5113679;28;19912;-70
2021/06/10 03:33:03;;;;;;;;;;;9.80;99.90;;;;;;5113522;28;20346;-68
2021/06/10 03:35:31;;;;;;;;;;;10.00;99.90;;;;;;5113635;28;20429;-68
2021/06/10 03:37:58;;;;;;;;;;;9.90;99.90;;;;;;5113528;28;19958;-67
2021/06/10 03:40:25;;;;;;;;;;;10.00;99.90;;;;;;5113433;28;19915;-70
2021/06/10 03:42:52;;;;;;;;;;;9.90;99.90;;;;;;5113138;28;19920;-68
2021/06/10 03:45:19;;;;;;;;;;;9.90;99.90;;;;;;5113529;28;19908;-69
2021/06/10 03:47:46;;;;;;;;;;;9.80;99.90;;;;;;5113729;28;20286;-70
2021/06/10 03:50:13;;;;;;;;;;;9.80;99.90;;;;;;5113510;28;19943;-69
2021/06/10 03:52:40;;;;;;;;;;;9.80;99.90;;;;;;5113477;28;20006;-70
2021/06/10 03:55:08;;;;;;;;;;;9.90;99.90;;;;;;5113191;28;19914;-69
2021/06/10 03:57:35;;;;;;;;;;;9.80;99.90;;;;;;5113336;28;20385;-68
2021/06/10 04:00:03;;;;;;;;;;;9.90;99.90;;;;;;5113387;28;19914;-68
2021/06/10 04:02:30;;;;;;;;;;;10.00;99.90;;;;;;5113188;28;19992;-68
2021/06/10 04:04:57;;;;;;;;;;;10.00;99.90;;;;;;5113025;28;19919;-70
2021/06/10 04:07:23;;;;;;;;;;;9.90;99.90;;;;;;5113133;28;19965;-68
2021/06/10 04:09:50;;;;;;;;;;;10.00;99.90;;;;;;5113284;28;19915;-68
2021/06/10 04:12:17;;;;;;;;;;;10.00;99.90;;;;;;5113194;28;19908;-69
2021/06/10 04:14:43;;;;;;;;;;;10.10;99.90;;;;;;5113041;28;19984;-68
2021/06/10 04:17:10;;;;;;;;;;;10.10;99.90;;;;;;5113096;28;19991;-68
2021/06/10 04:19:37;;;;;;;;;;;10.10;99.90;;;;;;5113875;28;19947;-68
2021/06/10 04:22:03;;;;;;;;;;;10.10;99.90;;;;;;5117243;28;19908;-69
2021/06/10 04:24:34;;;;;;;;;;;10.20;99.90;;;;;;5117069;28;19923;-68
2021/06/10 04:27:01;;;;;;;;;;;10.20;99.90;;;;;;5117123;28;19953;-69
2021/06/10 04:29:28;;;;;;;;;;;10.20;99.90;;;;;;5117022;28;20314;-68
2021/06/10 04:31:55;;;;;;;;;;;10.20;99.90;;;;;;5116586;28;20368;-68
2021/06/10 04:34:22;;;;;;;;;;;10.20;99.90;;;;;;5116853;28;19939;-67
2021/06/10 04:36:48;;;;;;;;;;;10.20;99.90;;;;;;5116988;28;19908;-69
2021/06/10 04:39:15;;;;;;;;;;;10.20;99.90;;;;;;5116984;28;20430;-69
2021/06/10 04:41:42;;;;;;;;;;;10.10;99.90;;;;;;5116523;28;20370;-68
2021/06/10 04:44:08;;;;;;;;;;;10.10;99.90;;;;;;5116791;28;20285;-68
2021/06/10 04:46:35;;;;;;;;;;;10.10;99.90;;;;;;5116869;28;20011;-68
2021/06/10 04:49:03;;;;;;;;;;;10.20;99.90;;;;;;5116333;28;19915;-68
2021/06/10 04:51:30;;;;;;;;;;;10.20;99.90;;;;;;5116969;28;19908;-67
2021/06/10 04:53:56;;;;;;;;;;;10.10;99.90;;;;;;5116538;28;19958;-68
2021/06/10 04:56:24;;;;;;;;;;;10.10;99.90;;;;;;5116522;28;20242;-67
2021/06/10 04:58:51;;;;;;;;;;;10.00;99.90;;;;;;5116185;28;19907;-68
2021/06/10 05:01:17;;;;;;;;;;;10.00;99.90;;;;;;5116381;28;19919;-68
2021/06/10 05:03:44;;;;;;;;;;;10.10;99.90;;;;;;5116297;28;19920;-67
2021/06/10 05:06:11;;;;;;;;;;;10.10;99.90;;;;;;5116617;28;20006;-67
2021/06/10 05:08:37;;;;;;;;;;;9.90;99.90;;;;;;5116359;28;19919;-67
2021/06/10 05:11:04;;;;;;;;;;;9.90;99.90;;;;;;5116165;28;19908;-69
2021/06/10 05:13:31;;;;;;;;;;;9.90;99.90;;;;;;5116186;28;19908;-69
2021/06/10 05:15:58;;;;;;;;;;;9.80;99.90;;;;;;5115907;28;19912;-69
2021/06/10 05:18:24;;;;;;;;;;;9.80;99.90;;;;;;5115668;28;19907;-69
2021/06/10 05:20:51;;;;;;;;;;;9.70;99.90;;;;;;5115349;28;19908;-68
2021/06/10 05:23:17;;;;;;;;;;;9.70;99.90;;;;;;5115950;28;20023;-68
2021/06/10 05:25:44;;;;;;;;;;;9.60;99.90;;;;;;5116158;28;19959;-68
2021/06/10 05:28:11;;;;;;;;;;;9.70;99.90;;;;;;5115930;28;19908;-68
2021/06/10 05:30:38;;;;;;;;;;;9.70;99.90;;;;;;5115748;28;19912;-69
2021/06/10 05:33:04;;;;;;;;;;;9.80;99.90;;;;;;5115152;28;19919;-68
2021/06/10 05:35:31;;;;;;;;;;;9.80;99.90;;;;;;5115839;28;20382;-68
2021/06/10 05:37:58;;;;;;;;;;;9.80;99.90;;;;;;5115921;28;20306;-68
2021/06/10 05:40:25;;;;;;;;;;;9.80;99.90;;;;;;5115791;28;19915;-69
2021/06/10 05:42:53;;;;;;;;;;;9.80;99.90;;;;;;5115149;28;19919;-67
2021/06/10 05:45:20;;;;;;;;;;;9.80;99.90;;;;;;5115643;28;20366;-69
2021/06/10 05:47:46;;;;;;;;;;;9.70;99.90;;;;;;5115584;28;19939;-70
2021/06/10 05:50:14;;;;;;;;;;;9.70;99.90;;;;;;5115649;28;20263;-70
2021/06/10 05:52:42;;;;;;;;;;;9.70;99.90;;;;;;5115447;28;19908;-68
2021/06/10 05:55:09;;;;;;;;;;;9.80;99.90;;;;;;5115269;28;19908;-68
2021/06/10 05:57:36;;;;;;;;;;;9.80;99.90;;;;;;5115332;28;19915;-68
2021/06/10 06:00:04;;;;;;;;;;;9.70;99.90;;;;;;5115444;28;19944;-68
2021/06/10 06:02:31;;;;;;;;;;;9.80;99.90;;;;;;5115364;28;19943;-69
2021/06/10 06:04:57;;;;;;;;;;;9.80;99.90;;;;;;5115049;28;19915;-70
2021/06/10 06:07:24;;;;;;;;;;;9.80;99.90;;;;;;5115205;28;20011;-68
2021/06/10 06:09:51;;;;;;;;;;;9.80;99.90;;;;;;5115177;28;19914;-70
2021/06/10 06:12:18;;;;;;;;;;;9.80;99.90;;;;;;5115197;28;19912;-70
2021/06/10 06:14:45;;;;;;;;;;;9.80;99.90;;;;;;5114764;28;20002;-70
2021/06/10 06:17:13;;;;;;;;;;;9.80;99.90;;;;;;5115090;28;20311;-69
2021/06/10 06:19:39;;;;;;;;;;;9.90;99.90;;;;;;5115062;28;19908;-68
2021/06/10 06:22:07;;;;;;;;;;;9.90;99.90;;;;;;5096744;28;19955;-69
2021/06/10 06:24:34;;;;;;;;;;;9.80;99.90;;;;;;5114785;28;19916;-67
2021/06/10 06:27:01;;;;;;;;;;;9.80;99.90;;;;;;5114636;28;20362;-67
2021/06/10 06:29:28;;;;;;;;;;;9.80;99.90;;;;;;5114653;28;19912;-69
2021/06/10 06:31:54;;;;;;;;;;;9.80;99.90;;;;;;5114759;28;19908;-69
2021/06/10 06:34:22;;;;;;;;;;;9.80;99.90;;;;;;5114508;28;20314;-68
2021/06/10 06:36:49;;;;;;;;;;;9.80;99.90;;;;;;5114341;28;19908;-69
2021/06/10 06:39:15;;;;;;;;;;;9.80;99.90;;;;;;5114530;28;20330;-68
2021/06/10 06:41:42;;;;;;;;;;;9.70;99.90;;;;;;5114390;28;20531;-68
2021/06/10 06:44:09;;;;;;;;;;;9.70;99.90;;;;;;5113415;28;20280;-67
2021/06/10 06:46:36;;;;;;;;;;;9.70;99.90;;;;;;5114284;28;19908;-68
2021/06/10 06:49:05;;;;;;;;;;;9.70;99.90;;;;;;5113906;28;20274;-67
2021/06/10 06:51:32;;;;;;;;;;;9.50;99.90;;;;;;5114427;28;19953;-68
2021/06/10 06:53:59;;;;;;;;;;;9.50;99.90;;;;;;5114477;28;19907;-69
2021/06/10 06:56:26;;;;;;;;;;;9.40;99.90;;;;;;5114318;28;19947;-69
2021/06/10 06:58:53;;;;;;;;;;;9.40;99.90;;;;;;5114098;28;20231;-68
2021/06/10 07:01:20;;;;;;;;;;;9.40;99.90;;;;;;5096033;28;19908;-69
2021/06/10 07:03:46;;;;;;;;;;;9.50;99.90;;;;;;5113850;28;20015;-68
2021/06/10 07:06:13;;;;;;;;;;;9.50;99.90;;;;;;5114194;28;19915;-68
2021/06/10 07:08:40;;;;;;;;;;;9.50;99.90;;;;;;5106775;28;19912;-69
2021/06/10 07:11:06;;;;;;;;;;;9.50;99.90;;;;;;5073034;28;19909;-69
2021/06/10 07:13:33;;;;;;;;;;;9.60;99.90;;;;;;5073189;28;19908;-69
2021/06/10 07:16:00;;;;;;;;;;;9.60;99.90;;;;;;5073170;28;20472;-70
2021/06/10 07:18:27;;;;;;;;;;;9.60;99.90;;;;;;5072732;28;19908;-69
2021/06/10 07:20:54;;;;;;;;;;;9.70;99.90;;;;;;5073111;28;19912;-69
2021/06/10 07:23:21;;;;;;;;;;;9.70;99.90;;;;;;5072996;28;19923;-69
2021/06/10 07:25:47;;;;;;;;;;;9.60;99.90;;;;;;5073128;28;19951;-70
2021/06/10 07:28:14;;;;;;;;;;;9.60;99.90;;;;;;5073242;28;19909;-70
2021/06/10 07:30:40;;;;;;;;;;;9.70;99.90;;;;;;5073009;28;19909;-70
2021/06/10 07:33:07;;;;;;;;;;;9.60;99.90;;;;;;5072116;28;20387;-69
2021/06/10 07:35:34;;;;;;;;;;;9.60;99.90;;;;;;5073109;28;19952;-70
2021/06/10 07:38:02;;;;;;;;;;;9.60;99.90;;;;;;5072966;28;19962;-69
2021/06/10 07:40:29;;;;;;;;;;;9.60;99.90;;;;;;5071104;28;19913;-69
2021/06/10 07:42:56;;;;;;;;;;;9.50;99.90;;;;;;5070326;28;19920;-69
2021/06/10 07:45:24;;;;;;;;;;;9.50;99.90;;;;;;5070806;28;19977;-69
2021/06/10 07:47:51;;;;;;;;;;;9.50;99.90;;;;;;5070532;28;19909;-69
2021/06/10 07:50:18;;;;;;;;;;;9.60;99.90;;;;;;5070616;28;19939;-70
2021/06/10 07:52:44;;;;;;;;;;;9.50;99.90;;;;;;5070506;28;19908;-68
2021/06/10 07:55:11;;;;;;;;;;;9.50;99.90;;;;;;5070344;28;19964;-69
2021/06/10 07:57:38;;;;;;;;;;;9.50;99.90;;;;;;5070528;28;19919;-68
2021/06/10 08:00:06;;;;;;;;;;;9.40;99.90;;;;;;5070519;28;20374;-68
2021/06/10 08:02:33;;;;;;;;;;;9.40;99.90;;;;;;5070288;28;19909;-68
2021/06/10 08:05:00;;;;;;;;;;;9.40;99.90;;;;;;5070161;28;19909;-67
2021/06/10 08:07:31;;;;;;;;;;;9.50;99.90;;;;;;5070984;28;19908;-68
2021/06/10 08:09:58;;;;;;;;;;;9.50;99.90;;;;;;5072561;28;19917;-69
2021/06/10 08:12:25;;;;;;;;;;;9.50;99.90;;;;;;5072128;28;20385;-69
2021/06/10 08:14:51;;;;;;;;;;;9.50;99.90;;;;;;5070838;28;19951;-68
2021/06/10 08:17:18;;;;;;;;;;;9.40;99.90;;;;;;5070385;28;19923;-69
2021/06/10 08:19:45;;;;;;;;;;;9.30;99.90;;;;;;5069564;28;19908;-69
2021/06/10 08:22:12;;;;;;;;;;;9.30;99.90;;;;;;5071355;28;19909;-70
2021/06/10 08:24:38;;;;;;;;;;;9.30;99.90;;;;;;5070398;28;20324;-69
2021/06/10 08:27:05;;;;;;;;;;;9.30;99.90;;;;;;5069925;28;20302;-68
2021/06/10 08:29:32;;;;;;;;;;;9.30;99.90;;;;;;5070325;28;19919;-70
2021/06/10 08:31:59;;;;;;;;;;;9.10;99.90;;;;;;5069888;28;19924;-69
2021/06/10 08:34:25;;;;;;;;;;;9.10;99.90;;;;;;5069760;28;20006;-69
2021/06/10 08:36:52;;;;;;;;;;;8.90;99.90;;;;;;5070027;28;20287;-70
2021/06/10 08:39:19;;;;;;;;;;;8.90;99.90;;;;;;5070214;28;19912;-69
2021/06/10 08:41:46;;;;;;;;;;;8.80;99.90;;;;;;5069818;28;19924;-69
2021/06/10 08:44:13;;;;;;;;;;;8.80;99.90;;;;;;5070355;28;19916;-70
2021/06/10 08:46:40;;;;;;;;;;;8.70;99.90;;;;;;5070428;28;19909;-69
2021/06/10 08:49:06;;;;;;;;;;;8.70;99.90;;;;;;5069481;28;19909;-68
2021/06/10 08:51:33;;;;;;;;;;;8.70;99.90;;;;;;5069820;28;19915;-69
2021/06/10 08:54:01;;;;;;;;;;;8.80;99.90;;;;;;5077725;28;20022;-67
2021/06/10 08:56:30;;;;;;;;;;;8.80;99.90;;;;;;5070171;28;19913;-69
2021/06/10 08:58:57;;;;;;;;;;;8.80;99.90;;;;;;5069324;28;19993;-68
2021/06/10 09:01:24;;;;;;;;;;;8.80;99.90;;;;;;5070148;28;19915;-68
2021/06/10 09:03:51;;;;;;;;;;;8.70;99.90;;;;;;5069461;28;19917;-68
2021/06/10 09:06:19;;;;;;;;;;;8.70;99.90;;;;;;5071979;28;19913;-68
2021/06/10 09:08:46;;;;;;;;;;;8.70;99.90;;;;;;5057230;28;20544;-69
2021/06/10 09:11:17;;;;;;;;;;;8.70;99.90;;;;;;5075534;28;19908;-68
2021/06/10 09:13:45;;;;;;;;;;;8.80;99.90;;;;;;5075356;28;19912;-68
2021/06/10 09:16:24;;;;;;;;;;;8.70;99.90;;;;;;5075610;28;19918;-68
2021/06/10 09:19:02;;;;;;;;;;;8.70;99.90;;;;;;5074825;28;19908;-69
2021/06/10 09:21:30;;;;;;;;;;;8.70;99.90;;;;;;5075335;28;19912;-70
2021/06/10 09:24:14;;;;;;;;;;;8.60;99.90;;;;;;5075301;28;19928;-69
2021/06/10 09:26:41;;;;;;;;;;;8.60;99.90;;;;;;5075295;28;19915;-69
2021/06/10 09:29:07;;;;;;;;;;;8.60;99.90;;;;;;5075074;28;19916;-68
2021/06/10 09:31:35;;;;;;;;;;;8.60;99.90;;;;;;5075077;28;19915;-68
2021/06/10 09:34:13;;;;;;;;;;;8.60;99.90;;;;;;5056821;28;19952;-70
2021/06/10 09:36:41;;;;;;;;;;;8.60;99.90;;;;;;5075237;28;19909;-68
2021/06/10 09:39:13;;;;;;;;;;;8.50;99.90;;;;;;5074972;28;19913;-67
2021/06/10 09:42:12;;;;;;;;;;;8.50;99.90;;;;;;5074992;28;19913;-69
2021/06/10 09:44:48;;;;;;;;;;;8.50;99.90;;;;;;5066735;28;19917;-69
2021/06/10 09:47:16;;;;;;;;;;;8.50;99.90;;;;;;5074483;28;19917;-69
2021/06/10 09:49:43;;;;;;;;;;;8.50;99.90;;;;;;5074871;28;20344;-69
2021/06/10 09:52:09;;;;;;;;;;;8.50;99.90;;;;;;5074629;28;19915;-69
2021/06/10 09:54:47;;;;;;;;;;;8.60;99.90;;;;;;5075181;28;19908;-69
2021/06/10 09:57:14;;;;;;;;;;;8.70;99.90;;;;;;5074738;28;20393;-69
2021/06/10 09:59:50;;;;;;;;;;;8.70;99.90;;;;;;5074925;28;19908;-70
2021/06/10 10:02:18;;;;;;;;;;;8.70;99.90;;;;;;5074271;28;19916;-70
2021/06/10 10:05:01;;;;;;;;;;;8.90;99.90;;;;;;5074511;28;20290;-69
2021/06/10 10:07:29;;;;;;;;;;;8.90;99.90;;;;;;5074307;28;19919;-69
2021/06/10 10:09:57;;;;;;;;;;;9.00;99.90;;;;;;5074319;28;19909;-70
2021/06/10 10:12:27;;;;;;;;;;;8.80;99.90;;;;;;5074481;28;19912;-70
2021/06/10 10:14:55;;;;;;;;;;;8.60;99.90;;;;;;5074363;28;20343;-69
2021/06/10 10:17:22;;;;;;;;;;;8.40;99.90;;;;;;5073820;28;19950;-69
2021/06/10 10:19:49;;;;;;;;;;;8.30;99.90;;;;;;5074266;28;20370;-70
2021/06/10 10:22:16;;;;;;;;;;;8.20;99.90;;;;;;5074059;28;19909;-67
2021/06/10 10:24:43;;;;;;;;;;;8.20;99.90;;;;;;5073927;28;19916;-68
2021/06/10 10:27:12;;;;;;;;;;;8.20;99.90;;;;;;5079145;28;19931;-69
2021/06/10 10:29:40;;;;;;;;;;;8.10;99.90;;;;;;5069805;28;19931;-69
2021/06/10 10:32:08;;;;;;;;;;;8.10;99.90;;;;;;5073610;28;19909;-70
2021/06/10 10:34:35;;;;;;;;;;;8.20;99.90;;;;;;5072128;28;19908;-70
2021/06/10 10:37:17;;;;;;;;;;;8.20;99.90;;;;;;5073888;28;19919;-70
2021/06/10 10:39:44;;;;;;;;;;;8.20;99.90;;;;;;5073905;28;19908;-69
2021/06/10 10:42:24;;;;;;;;;;;8.20;99.90;;;;;;5073725;28;19920;-70
2021/06/10 10:44:54;;;;;;;;;;;8.10;99.90;;;;;;5073463;28;20066;-69
2021/06/10 10:47:20;;;;;;;;;;;8.00;99.90;;;;;;5093645;28;19908;-69
2021/06/10 10:49:53;;;;;;;;;;;8.00;99.90;;;;;;5093995;28;19915;-68
2021/06/10 10:52:34;;;;;;;;;;;8.00;99.90;;;;;;5093719;28;19962;-71
2021/06/10 10:55:14;;;;;;;;;;;8.00;99.90;;;;;;5093842;28;19908;-69
2021/06/10 10:57:41;;;;;;;;;;;8.00;99.90;;;;;;5093821;28;19961;-71
2021/06/10 11:00:09;;;;;;;;;;;8.00;99.90;;;;;;5094019;28;19908;-70
2021/06/10 11:02:46;;;;;;;;;;;8.20;99.90;;;;;;5093679;28;19908;-69
2021/06/10 11:05:27;;;;;;;;;;;8.30;99.90;;;;;;5093798;28;19995;-71
2021/06/10 11:07:55;;;;;;;;;;;8.30;99.90;;;;;;5075661;28;19939;-70
2021/06/10 11:10:38;;;;;;;;;;;8.30;99.90;;;;;;5093520;28;19954;-70
2021/06/10 11:13:21;;;;;;;;;;;8.30;99.90;;;;;;5093476;28;20341;-70
2021/06/10 11:15:48;;;;;;;;;;;8.30;99.90;;;;;;5093722;28;19912;-71
2021/06/10 11:18:34;;;;;;;;;;;8.40;99.90;;;;;;5093442;28;19912;-70
2021/06/10 11:21:01;;;;;;;;;;;8.50;99.90;;;;;;5093300;28;19990;-70
2021/06/10 11:23:28;;;;;;;;;;;8.60;99.90;;;;;;5093434;28;19931;-70
2021/06/10 11:25:57;;;;;;;;;;;8.60;99.90;;;;;;5093523;28;19909;-69
2021/06/10 11:28:26;;;;;;;;;;;8.60;99.90;;;;;;5093469;28;19912;-70
2021/06/10 11:30:56;;;;;;;;;;;8.50;99.90;;;;;;5092777;28;19915;-69
2021/06/10 11:33:24;;;;;;;;;;;8.50;99.90;;;;;;5093419;28;19908;-70
2021/06/10 11:35:57;;;;;;;;;;;8.50;99.90;;;;;;5093467;28;19916;-70
2021/06/10 11:38:26;;;;;;;;;;;8.50;99.90;;;;;;5093070;28;19915;-70
2021/06/10 11:40:56;;;;;;;;;;;8.50;99.90;;;;;;5093014;28;19915;-70
2021/06/10 11:43:23;;;;;;;;;;;8.40;99.90;;;;;;5092909;28;19924;-71
2021/06/10 11:45:51;;;;;;;;;;;8.50;99.90;;;;;;5093152;28;19919;-70
2021/06/10 11:48:35;;;;;;;;;;;8.50;99.90;;;;;;5093062;28;20527;-71
2021/06/10 11:51:03;;;;;;;;;;;8.50;99.90;;;;;;5092979;28;19912;-70
2021/06/10 11:53:31;;;;;;;;;;;8.50;99.90;;;;;;5074963;28;19915;-70
2021/06/10 11:55:58;;;;;;;;;;;8.50;99.90;;;;;;5092939;28;20363;-70
2021/06/10 11:58:27;;;;;;;;;;;8.50;99.90;;;;;;5092687;28;20281;-71
2021/06/10 12:00:54;;;;;;;;;;;8.50;99.90;;;;;;5092672;28;19915;-70
2021/06/10 12:03:21;;;;;;;;;;;8.40;99.90;;;;;;5092781;28;19939;-71
2021/06/10 12:05:55;;;;;;;;;;;8.30;99.90;;;;;;5093031;28;20002;-70
2021/06/10 12:08:21;;;;;;;;;;;8.30;99.90;;;;;;5092901;28;20366;-71
2021/06/10 12:10:49;;;;;;;;;;;8.30;99.90;;;;;;5092793;28;19913;-71
2021/06/10 12:13:16;;;;;;;;;;;8.30;99.90;;;;;;5093055;28;19908;-70
2021/06/10 12:15:45;;;;;;;;;;;8.30;99.90;;;;;;5092888;28;19908;-70
2021/06/10 12:18:13;;;;;;;;;;;8.30;99.90;;;;;;5092852;28;19916;-70
2021/06/10 12:20:42;;;;;;;;;;;8.30;99.90;;;;;;5092754;28;19908;-69
2021/06/10 12:23:36;;;;;;;;;;;8.40;99.90;;;;;;5093641;28;19917;-69
2021/06/10 12:26:05;;;;;;;;;;;8.40;99.90;;;;;;5088665;28;19908;-70
2021/06/10 12:28:36;;;;;;;;;;;8.40;99.90;;;;;;5092683;28;19908;-70
2021/06/10 12:31:28;;;;;;;;;;;8.40;99.90;;;;;;5092394;28;20120;-70
2021/06/10 12:33:59;;;;;;;;;;;8.50;99.90;;;;;;5090818;28;20343;-69
2021/06/10 12:36:31;;;;;;;;;;;8.60;99.90;;;;;;5092796;28;19955;-70
2021/06/10 12:39:05;;;;;;;;;;;8.70;99.90;;;;;;5092460;28;19912;-69
2021/06/10 12:41:33;;;;;;;;;;;8.80;99.90;;;;;;5093306;28;19916;-70
2021/06/10 12:44:10;;;;;;;;;;;8.90;99.90;;;;;;5096458;28;19916;-70
2021/06/10 12:46:46;;;;;;;;;;;9.00;99.90;;;;;;5096348;28;19908;-70
2021/06/10 12:49:13;;;;;;;;;;;9.00;99.90;;;;;;5096392;28;19908;-70
2021/06/10 12:51:46;;;;;;;;;;;9.00;99.90;;;;;;5096309;28;19976;-70
2021/06/10 12:54:14;;;;;;;;;;;9.00;99.90;;;;;;5097096;28;19951;-70
2021/06/10 12:56:52;;;;;;;;;;;9.10;99.90;;;;;;5097649;28;20016;-71
2021/06/10 12:59:23;;;;;;;;;;;9.20;99.90;;;;;;5097447;28;19912;-70
2021/06/10 13:02:07;;;;;;;;;;;9.20;99.90;;;;;;5098387;28;19915;-71
2021/06/10 13:04:34;;;;;;;;;;;9.10;99.90;;;;;;5101015;28;19916;-71
2021/06/10 13:07:01;;;;;;;;;;;9.10;99.90;;;;;;5106415;28;19908;-71
2021/06/10 13:09:28;;;;;;;;;;;9.10;99.90;;;;;;5111159;28;19908;-71
2021/06/10 13:12:13;;;;;;;;;;;9.10;99.90;;;;;;5112738;28;19908;-70
2021/06/10 13:14:39;;;;;;;;;;;9.10;99.90;;;;;;5111539;28;19908;-70
2021/06/10 13:17:07;;;;;;;;;;;9.20;99.90;;;;;;5099807;28;19954;-70
2021/06/10 13:19:36;;;;;;;;;;;9.20;99.90;;;;;;5097858;28;19915;-70
2021/06/10 13:22:06;;;;;;;;;;;9.20;99.90;;;;;;5099630;28;20319;-70
2021/06/10 13:24:46;;;;;;;;;;;9.20;99.90;;;;;;5095788;28;19961;-70
2021/06/10 13:27:20;;;;;;;;;;;9.30;99.90;;;;;;5095784;28;19920;-70
2021/06/10 13:29:56;;;;;;;;;;;9.30;99.90;;;;;;5095599;28;20363;-70
2021/06/10 13:32:24;;;;;;;;;;;9.30;99.90;;;;;;5095490;28;19947;-70
2021/06/10 13:35:13;;;;;;;;;;;9.30;99.90;;;;;;5095419;28;20057;-71
2021/06/10 13:37:40;;;;;;;;;;;9.40;99.90;;;;;;5080731;28;19919;-71
2021/06/10 13:40:06;;;;;;;;;;;9.40;99.90;;;;;;5095528;28;20398;-71
2021/06/10 13:42:33;;;;;;;;;;;9.40;99.90;;;;;;5095289;28;19943;-70
2021/06/10 13:45:00;;;;;;;;;;;9.30;99.90;;;;;;5095122;28;19908;-68
2021/06/10 13:47:27;;;;;;;;;;;9.30;99.90;;;;;;5095686;28;19912;-70
2021/06/10 13:49:54;;;;;;;;;;;9.40;99.90;;;;;;5095544;28;20057;-71
2021/06/10 13:52:20;;;;;;;;;;;9.40;99.90;;;;;;5094762;28;19999;-69
2021/06/10 13:54:47;;;;;;;;;;;9.40;99.90;;;;;;5095073;28;19908;-70
2021/06/10 13:57:13;;;;;;;;;;;9.40;99.90;;;;;;5095088;28;19931;-71
2021/06/10 13:59:40;;;;;;;;;;;9.30;99.90;;;;;;5095090;28;19912;-69
2021/06/10 14:02:07;;;;;;;;;;;9.10;99.90;;;;;;5094920;28;19908;-70
2021/06/10 14:04:34;;;;;;;;;;;9.10;99.90;;;;;;5095006;28;20010;-69
2021/06/10 14:07:02;;;;;;;;;;;9.20;99.90;;;;;;5094552;28;19915;-70
2021/06/10 14:09:28;;;;;;;;;;;9.20;99.90;;;;;;5094630;28;19961;-70
2021/06/10 14:11:56;;;;;;;;;;;9.20;99.90;;;;;;5094808;28;19916;-68
2021/06/10 14:14:23;;;;;;;;;;;9.10;99.90;;;;;;5094936;28;19908;-70
2021/06/10 14:16:50;;;;;;;;;;;9.00;99.90;;;;;;5094408;28;20362;-69
2021/06/10 14:19:19;;;;;;;;;;;8.90;99.90;;;;;;5094820;28;19915;-70
2021/06/10 14:21:46;;;;;;;;;;;8.70;99.90;;;;;;5094630;28;19922;-70
2021/06/10 14:24:13;;;;;;;;;;;8.70;99.90;;;;;;5095029;28;20029;-70
2021/06/10 14:26:40;;;;;;;;;;;8.70;99.90;;;;;;5094812;28;19924;-70
2021/06/10 14:29:09;;;;;;;;;;;8.70;99.90;;;;;;5094707;28;19969;-70
2021/06/10 14:34:18;;;;;;;;;;;8.80;99.90;;;;;;5094638;28;19934;-66
2021/06/10 14:36:46;;;;;;;;;;;8.80;99.90;;;;;;5094116;28;20423;-66
2021/06/10 14:39:13;;;;;;;;;;;8.60;99.90;;;;;;5094333;28;19940;-66